createdAt,value
2022-12-31T00:02:39.877Z,99156.20
2022-12-31T00:05:37.781Z,99155.80
2022-12-31T00:08:35.195Z,99147.00
2022-12-31T00:11:32.909Z,99139.60
2022-12-31T00:14:30.573Z,99139.60
2022-12-31T00:17:27.985Z,99135.80
2022-12-31T00:20:25.727Z,99136.60
2022-12-31T00:23:23.152Z,99132.00
2022-12-31T00:26:21.437Z,99134.80
2022-12-31T00:29:18.857Z,99137.00
2022-12-31T00:32:16.555Z,99125.20
2022-12-31T00:35:13.980Z,99124.20
2022-12-31T00:38:11.679Z,99117.60
2022-12-31T00:41:09.485Z,99116.20
2022-12-31T00:44:06.909Z,99121.40
2022-12-31T00:47:04.608Z,99125.00
2022-12-31T00:50:02.092Z,99127.20
2022-12-31T00:52:59.802Z,99131.20
2022-12-31T00:55:57.230Z,99141.20
2022-12-31T00:58:54.921Z,99146.40
2022-12-31T01:01:52.431Z,99143.00
2022-12-31T01:04:50.259Z,99140.20
2022-12-31T01:07:48.020Z,99147.80
2022-12-31T01:11:03.369Z,99148.40
2022-12-31T01:14:01.026Z,99160.60
2022-12-31T01:16:58.449Z,99179.60
2022-12-31T01:19:56.194Z,99189.00
2022-12-31T01:22:53.650Z,99184.80
2022-12-31T01:25:51.424Z,99182.80
2022-12-31T01:28:48.851Z,99204.60
2022-12-31T01:31:46.647Z,99200.20
2022-12-31T01:34:44.052Z,99181.40
2022-12-31T01:37:41.636Z,99179.40
2022-12-31T01:40:39.040Z,99207.40
2022-12-31T01:43:36.764Z,99194.40
2022-12-31T01:46:34.627Z,99204.00
2022-12-31T01:49:32.092Z,99187.60
2022-12-31T01:52:29.751Z,99220.40
2022-12-31T01:55:27.675Z,99196.40
2022-12-31T01:58:25.419Z,99207.80
2022-12-31T02:01:22.934Z,99211.40
2022-12-31T02:04:20.696Z,99199.20
2022-12-31T02:07:18.132Z,99200.20
2022-12-31T02:10:15.716Z,99211.00
2022-12-31T02:13:13.319Z,99199.40
2022-12-31T02:16:10.813Z,99214.40
2022-12-31T02:19:08.572Z,99211.80
2022-12-31T02:22:06.041Z,99199.20
2022-12-31T02:25:03.893Z,99203.80
2022-12-31T02:28:01.342Z,99211.20
2022-12-31T02:30:59.652Z,99205.60
2022-12-31T02:33:57.084Z,99208.20
2022-12-31T02:36:54.765Z,99213.00
2022-12-31T02:39:52.519Z,99216.40
2022-12-31T02:42:55.043Z,99223.40
2022-12-31T02:45:53.399Z,99218.40
2022-12-31T02:48:50.814Z,99217.20
2022-12-31T02:51:48.611Z,99220.40
2022-12-31T02:54:46.162Z,99218.60
2022-12-31T02:57:43.840Z,99217.80
2022-12-31T03:00:59.496Z,99228.00
2022-12-31T03:04:22.249Z,99228.40
2022-12-31T03:07:19.902Z,99232.00
2022-12-31T03:10:17.343Z,99232.00
2022-12-31T03:13:14.996Z,99229.80
2022-12-31T03:16:12.743Z,99236.20
2022-12-31T03:19:27.975Z,99241.60
2022-12-31T03:22:31.720Z,99247.80
2022-12-31T03:25:35.061Z,99247.80
2022-12-31T03:28:32.896Z,99245.80
2022-12-31T03:31:30.568Z,99260.20
2022-12-31T03:34:28.050Z,99262.80
2022-12-31T03:37:25.799Z,99260.40
2022-12-31T03:40:23.209Z,99267.20
2022-12-31T03:43:20.901Z,99259.40
2022-12-31T03:46:18.404Z,99271.20
2022-12-31T03:49:16.091Z,99274.40
2022-12-31T03:52:13.503Z,99275.80
2022-12-31T03:55:11.258Z,99278.80
2022-12-31T03:58:08.851Z,99281.60
2022-12-31T04:01:06.352Z,99282.00
2022-12-31T04:04:04.146Z,99274.00
2022-12-31T04:07:01.574Z,99283.60
2022-12-31T04:09:59.264Z,99283.20
2022-12-31T04:12:56.682Z,99282.40
2022-12-31T04:15:54.385Z,99284.80
2022-12-31T04:18:51.813Z,99298.60
2022-12-31T04:21:49.452Z,99295.20
2022-12-31T04:24:46.917Z,99302.40
2022-12-31T04:27:45.052Z,99314.20
2022-12-31T04:30:42.803Z,99313.20
2022-12-31T04:33:40.235Z,99320.40
2022-12-31T04:36:38.060Z,99319.00
2022-12-31T04:39:35.506Z,99326.20
2022-12-31T04:42:33.225Z,99321.80
2022-12-31T04:45:30.631Z,99325.40
2022-12-31T04:48:28.293Z,99321.00
2022-12-31T04:51:25.708Z,99324.00
2022-12-31T04:54:23.517Z,99318.00
2022-12-31T04:57:20.931Z,99323.40
2022-12-31T05:00:18.753Z,99314.40
2022-12-31T05:03:16.424Z,99318.00
2022-12-31T05:06:13.904Z,99316.00
2022-12-31T05:09:11.631Z,99310.20
2022-12-31T05:12:09.056Z,99311.20
2022-12-31T05:15:06.778Z,99320.80
2022-12-31T05:18:04.268Z,99321.40
2022-12-31T05:21:01.989Z,99325.00
2022-12-31T05:23:59.710Z,99330.40
2022-12-31T05:26:57.412Z,99335.40
2022-12-31T05:29:54.835Z,99338.00
2022-12-31T05:32:52.540Z,99350.60
2022-12-31T05:35:50.285Z,99340.60
2022-12-31T05:38:47.718Z,99347.80
2022-12-31T05:41:45.442Z,99352.80
2022-12-31T05:44:42.854Z,99354.60
2022-12-31T05:47:40.567Z,99355.00
2022-12-31T05:50:37.993Z,99348.20
2022-12-31T05:53:35.789Z,99351.40
2022-12-31T05:56:33.413Z,99351.60
2022-12-31T05:59:30.850Z,99353.20
2022-12-31T06:02:28.631Z,99345.80
2022-12-31T06:05:26.694Z,99350.80
2022-12-31T06:08:25.291Z,99345.40
2022-12-31T06:11:22.730Z,99343.60
2022-12-31T06:14:20.331Z,99357.40
2022-12-31T06:17:17.762Z,99350.20
2022-12-31T06:20:15.455Z,99353.60
2022-12-31T06:23:12.888Z,99347.00
2022-12-31T06:26:10.601Z,99353.60
2022-12-31T06:29:08.063Z,99347.40
2022-12-31T06:32:05.659Z,99354.40
2022-12-31T06:35:03.293Z,99351.80
2022-12-31T06:38:00.725Z,99353.00
2022-12-31T06:40:58.420Z,99358.00
2022-12-31T06:43:55.842Z,99354.60
2022-12-31T06:46:53.568Z,99360.40
2022-12-31T06:49:50.994Z,99361.40
2022-12-31T06:52:48.687Z,99365.60
2022-12-31T06:55:46.111Z,99377.80
2022-12-31T06:58:43.921Z,99380.60
2022-12-31T07:01:41.798Z,99387.20
2022-12-31T07:04:39.333Z,99393.60
2022-12-31T07:07:37.096Z,99392.40
2022-12-31T07:10:34.621Z,99393.20
2022-12-31T07:13:32.368Z,99388.80
2022-12-31T07:16:29.883Z,99387.40
2022-12-31T07:19:27.646Z,99398.20
2022-12-31T07:22:25.425Z,99401.20
2022-12-31T07:25:23.612Z,99404.20
2022-12-31T07:28:21.297Z,99410.40
2022-12-31T07:31:19.049Z,99414.80
2022-12-31T07:34:16.686Z,99418.60
2022-12-31T07:37:14.116Z,99424.00
2022-12-31T07:40:11.928Z,99417.40
2022-12-31T07:43:09.387Z,99423.80
2022-12-31T07:46:07.263Z,99429.20
2022-12-31T07:49:04.739Z,99433.40
2022-12-31T07:52:02.475Z,99424.20
2022-12-31T07:55:00.155Z,99435.80
2022-12-31T07:57:57.580Z,99432.00
2022-12-31T08:00:55.395Z,99426.40
2022-12-31T08:03:52.828Z,99416.60
2022-12-31T08:06:50.560Z,99414.40
2022-12-31T08:09:47.984Z,99423.60
2022-12-31T08:12:45.663Z,99417.60
2022-12-31T08:15:43.105Z,99423.80
2022-12-31T08:18:40.849Z,99420.80
2022-12-31T08:21:38.284Z,99425.00
2022-12-31T08:24:36.585Z,99435.00
2022-12-31T08:27:34.202Z,99441.00
2022-12-31T08:30:31.643Z,99438.40
2022-12-31T08:33:29.385Z,99445.20
2022-12-31T08:36:26.800Z,99446.00
2022-12-31T08:39:24.495Z,99446.60
2022-12-31T08:42:22.361Z,99454.80
2022-12-31T08:45:19.814Z,99451.40
2022-12-31T08:48:17.583Z,99445.80
2022-12-31T08:51:15.017Z,99447.20
2022-12-31T08:54:12.707Z,99450.80
2022-12-31T08:57:10.155Z,99452.60
2022-12-31T09:00:09.281Z,99459.80
2022-12-31T09:03:06.957Z,99465.80
2022-12-31T09:06:04.369Z,99469.80
2022-12-31T09:09:02.066Z,99463.80
2022-12-31T09:11:59.502Z,99458.20
2022-12-31T09:14:57.197Z,99445.00
2022-12-31T09:17:54.623Z,99444.20
2022-12-31T09:20:52.329Z,99447.60
2022-12-31T09:23:49.739Z,99446.20
2022-12-31T09:26:47.409Z,99471.20
2022-12-31T09:29:44.820Z,99464.80
2022-12-31T09:32:43.078Z,99467.00
2022-12-31T09:35:40.771Z,99468.80
2022-12-31T09:38:38.189Z,99478.20
2022-12-31T09:41:35.774Z,99486.20
2022-12-31T09:44:33.191Z,99480.20
2022-12-31T09:47:30.882Z,99480.20
2022-12-31T09:50:28.297Z,99477.60
2022-12-31T09:53:26.009Z,99472.20
2022-12-31T09:56:23.776Z,99466.60
2022-12-31T09:59:21.215Z,99474.20
2022-12-31T10:02:19.092Z,99472.60
2022-12-31T10:05:16.664Z,99471.60
2022-12-31T10:08:14.454Z,99465.40
2022-12-31T10:11:11.871Z,99458.60
2022-12-31T10:14:09.571Z,99457.60
2022-12-31T10:17:07.050Z,99457.00
2022-12-31T10:20:05.911Z,99459.40
2022-12-31T10:23:03.710Z,99459.20
2022-12-31T10:26:01.137Z,99449.60
2022-12-31T10:28:58.862Z,99453.80
2022-12-31T10:31:56.327Z,99440.00
2022-12-31T10:34:54.565Z,99448.00
2022-12-31T10:37:51.999Z,99442.40
2022-12-31T10:40:49.686Z,99438.60
2022-12-31T10:43:47.137Z,99431.00
2022-12-31T10:46:44.815Z,99429.80
2022-12-31T10:49:42.260Z,99425.80
2022-12-31T10:52:42.126Z,99429.20
2022-12-31T10:55:39.874Z,99420.00
2022-12-31T10:58:37.625Z,99430.20
2022-12-31T11:01:35.517Z,99433.60
2022-12-31T11:04:32.995Z,99435.80
2022-12-31T11:07:30.805Z,99425.20
2022-12-31T11:10:28.220Z,99429.00
2022-12-31T11:13:25.904Z,99421.80
2022-12-31T11:16:23.359Z,99428.00
2022-12-31T11:19:21.360Z,99432.80
2022-12-31T11:22:19.055Z,99426.00
2022-12-31T11:25:16.488Z,99426.20
2022-12-31T11:28:14.272Z,99434.80
2022-12-31T11:31:11.746Z,99427.40
2022-12-31T11:34:11.008Z,99415.20
2022-12-31T11:37:09.046Z,99411.80
2022-12-31T11:40:06.750Z,99404.00
2022-12-31T11:43:04.160Z,99392.80
2022-12-31T11:46:01.838Z,99382.20
2022-12-31T11:48:59.291Z,99380.80
2022-12-31T11:51:56.975Z,99377.40
2022-12-31T11:54:54.675Z,99372.20
2022-12-31T11:57:52.111Z,99371.20
2022-12-31T12:00:49.818Z,99377.60
2022-12-31T12:03:47.310Z,99369.00
2022-12-31T12:06:46.452Z,99379.00
2022-12-31T12:09:44.251Z,99393.40
2022-12-31T12:12:41.678Z,99385.20
2022-12-31T12:15:39.256Z,99392.20
2022-12-31T12:18:38.171Z,99391.80
2022-12-31T12:21:35.890Z,99391.40
2022-12-31T12:24:33.304Z,99379.20
2022-12-31T12:27:31.006Z,99375.80
2022-12-31T12:30:28.590Z,99378.80
2022-12-31T12:33:26.018Z,99382.20
2022-12-31T12:36:23.729Z,99396.80
2022-12-31T12:39:21.151Z,99398.40
2022-12-31T12:42:18.846Z,99390.20
2022-12-31T12:45:16.264Z,99401.80
2022-12-31T12:48:13.969Z,99394.00
2022-12-31T12:51:11.638Z,99388.00
2022-12-31T12:54:09.060Z,99381.80
2022-12-31T12:57:06.744Z,99375.20
2022-12-31T13:00:04.352Z,99386.80
2022-12-31T13:03:02.044Z,99378.00
2022-12-31T13:05:59.466Z,99377.20
2022-12-31T13:08:57.171Z,99374.40
2022-12-31T13:11:54.582Z,99384.80
2022-12-31T13:14:52.334Z,99384.00
2022-12-31T13:17:54.980Z,99384.80
2022-12-31T13:20:54.827Z,99390.20
2022-12-31T13:23:52.496Z,99410.20
2022-12-31T13:26:49.907Z,99413.20
2022-12-31T13:29:47.625Z,99398.60
2022-12-31T13:32:45.064Z,99402.00
2022-12-31T13:35:42.860Z,99400.40
2022-12-31T13:38:40.611Z,99413.60
2022-12-31T13:41:38.029Z,99411.40
2022-12-31T13:44:35.837Z,99411.40
2022-12-31T13:47:33.266Z,99402.40
2022-12-31T13:50:30.974Z,99398.40
2022-12-31T13:53:31.506Z,99408.80
2022-12-31T13:56:29.104Z,99402.60
2022-12-31T13:59:26.684Z,99418.40
2022-12-31T14:02:24.205Z,99417.00
2022-12-31T14:05:21.890Z,99417.60
2022-12-31T14:08:19.314Z,99421.40
2022-12-31T14:11:17.281Z,99427.20
2022-12-31T14:14:14.738Z,99428.80
2022-12-31T14:17:12.519Z,99416.40
2022-12-31T14:20:10.157Z,99424.40
2022-12-31T14:23:07.600Z,99429.20
2022-12-31T14:26:05.401Z,99425.80
2022-12-31T14:29:02.819Z,99425.60
2022-12-31T14:32:00.602Z,99428.40
2022-12-31T14:34:58.411Z,99431.80
2022-12-31T14:37:55.842Z,99435.60
2022-12-31T14:40:53.641Z,99436.40
2022-12-31T14:43:51.055Z,99432.40
2022-12-31T14:46:48.854Z,99433.40
2022-12-31T14:49:46.317Z,99437.40
2022-12-31T14:52:44.069Z,99438.00
2022-12-31T14:55:42.110Z,99433.40
2022-12-31T14:58:39.533Z,99433.20
2022-12-31T15:01:37.231Z,99441.20
2022-12-31T15:04:34.843Z,99437.20
2022-12-31T15:07:32.500Z,99431.80
2022-12-31T15:10:29.913Z,99430.00
2022-12-31T15:13:27.677Z,99426.60
2022-12-31T15:16:25.398Z,99425.80
2022-12-31T15:19:22.846Z,99420.00
2022-12-31T15:22:20.617Z,99411.80
2022-12-31T15:25:18.045Z,99421.60
2022-12-31T15:28:15.743Z,99425.60
2022-12-31T15:31:17.717Z,99431.80
2022-12-31T15:34:16.166Z,99427.20
2022-12-31T15:37:13.598Z,99429.80
2022-12-31T15:40:11.271Z,99425.00
2022-12-31T15:43:08.990Z,99422.00
2022-12-31T15:46:06.456Z,99418.80
2022-12-31T15:49:07.835Z,99419.00
2022-12-31T15:52:06.582Z,99414.60
2022-12-31T15:55:04.228Z,99420.60
2022-12-31T15:58:02.440Z,99427.00
2022-12-31T16:01:00.199Z,99424.40
2022-12-31T16:03:58.018Z,99434.00
2022-12-31T16:06:55.723Z,99430.60
2022-12-31T16:09:53.160Z,99429.00
2022-12-31T16:12:50.940Z,99425.20
2022-12-31T16:15:48.377Z,99427.40
2022-12-31T16:18:46.196Z,99430.00
2022-12-31T16:21:43.944Z,99435.00
2022-12-31T16:25:02.619Z,99438.20
2022-12-31T16:27:59.044Z,99444.40
2022-12-31T16:30:56.541Z,99446.60
2022-12-31T16:33:54.180Z,99449.00
2022-12-31T16:36:51.829Z,99449.20
2022-12-31T16:39:49.249Z,99455.20
2022-12-31T16:42:46.972Z,99463.40
2022-12-31T16:45:44.450Z,99463.40
2022-12-31T16:48:42.194Z,99472.40
2022-12-31T16:51:39.604Z,99473.20
2022-12-31T16:54:37.319Z,99476.80
2022-12-31T16:57:34.755Z,99466.20
2022-12-31T17:00:32.392Z,99459.60
2022-12-31T17:03:30.196Z,99459.80
2022-12-31T17:06:28.496Z,99466.20
2022-12-31T17:09:26.272Z,99463.20
2022-12-31T17:12:25.068Z,99464.60
2022-12-31T17:15:22.684Z,99464.40
2022-12-31T17:18:20.209Z,99460.80
2022-12-31T17:21:17.931Z,99452.20
2022-12-31T17:24:15.370Z,99447.60
2022-12-31T17:27:13.098Z,99445.60
2022-12-31T17:30:11.262Z,99443.00
2022-12-31T17:33:08.678Z,99436.20
2022-12-31T17:36:06.340Z,99444.40
2022-12-31T17:39:03.794Z,99447.00
2022-12-31T17:42:01.420Z,99438.00
2022-12-31T17:44:58.888Z,99431.40
2022-12-31T17:47:58.639Z,99434.40
2022-12-31T17:50:56.060Z,99428.20
2022-12-31T17:53:53.798Z,99436.80
2022-12-31T17:56:51.224Z,99436.20
2022-12-31T17:59:48.831Z,99435.80
2022-12-31T18:02:46.529Z,99432.20
2022-12-31T18:05:43.950Z,99437.20
2022-12-31T18:08:41.697Z,99438.80
2022-12-31T18:11:39.103Z,99440.20
2022-12-31T18:14:36.817Z,99445.00
2022-12-31T18:17:35.110Z,99450.80
2022-12-31T18:20:32.863Z,99446.80
2022-12-31T18:23:30.280Z,99435.60
2022-12-31T18:26:27.990Z,99438.20
2022-12-31T18:29:25.406Z,99437.00
2022-12-31T18:32:23.211Z,99441.00
2022-12-31T18:38:39.365Z,99435.20
2022-12-31T18:41:37.509Z,99434.00
2022-12-31T18:44:34.920Z,99432.80
2022-12-31T18:47:37.452Z,99436.20
2022-12-31T18:50:35.341Z,99436.80
2022-12-31T18:53:33.081Z,99437.80
2022-12-31T18:56:31.412Z,99444.80
2022-12-31T18:59:29.127Z,99444.80
2022-12-31T19:02:26.798Z,99444.00
2022-12-31T19:05:24.218Z,99438.00
2022-12-31T19:08:21.911Z,99440.00
2022-12-31T19:11:19.326Z,99447.60
2022-12-31T19:14:18.796Z,99442.80
2022-12-31T19:17:16.223Z,99428.20
2022-12-31T19:20:14.016Z,99434.20
2022-12-31T19:23:11.679Z,99425.20
2022-12-31T19:26:09.109Z,99422.60
2022-12-31T19:29:06.683Z,99433.80
2022-12-31T19:32:04.166Z,99430.80
2022-12-31T19:35:01.829Z,99424.20
2022-12-31T19:38:00.012Z,99431.60
2022-12-31T19:40:57.649Z,99430.40
2022-12-31T19:43:55.093Z,99428.60
2022-12-31T19:46:52.910Z,99424.20
2022-12-31T19:49:50.663Z,99416.80
2022-12-31T19:52:48.091Z,99415.40
2022-12-31T19:55:45.751Z,99414.60
2022-12-31T19:58:43.187Z,99413.00
2022-12-31T20:01:40.994Z,99414.20
2022-12-31T20:04:38.574Z,99417.60
2022-12-31T20:07:36.328Z,99411.20
2022-12-31T20:10:34.115Z,99405.20
2022-12-31T20:13:31.543Z,99406.80
2022-12-31T20:16:30.090Z,99409.80
2022-12-31T20:19:27.545Z,99415.80
2022-12-31T20:22:25.175Z,99413.60
2022-12-31T20:25:22.590Z,99411.80
2022-12-31T20:28:20.298Z,99408.80
2022-12-31T20:31:17.772Z,99411.40
2022-12-31T20:34:15.521Z,99413.00
2022-12-31T20:37:13.288Z,99410.60
2022-12-31T20:40:10.747Z,99412.80
2022-12-31T20:43:08.503Z,99407.80
2022-12-31T20:46:09.404Z,99409.80
2022-12-31T20:49:11.922Z,99402.60
2022-12-31T20:52:09.337Z,99405.00
2022-12-31T20:55:07.155Z,99402.80
2022-12-31T20:58:06.563Z,99411.00
2022-12-31T21:01:04.081Z,99408.00
2022-12-31T21:04:05.266Z,99410.60
2022-12-31T21:07:03.658Z,99407.80
2022-12-31T21:10:01.338Z,99418.20
2022-12-31T21:12:58.856Z,99413.60
2022-12-31T21:15:56.574Z,99412.80
2022-12-31T21:18:54.346Z,99417.20
2022-12-31T21:21:51.984Z,99422.00
2022-12-31T21:24:49.381Z,99425.80
2022-12-31T21:27:47.124Z,99428.40
2022-12-31T21:30:44.576Z,99426.40
2022-12-31T21:33:42.432Z,99419.00
2022-12-31T21:36:40.192Z,99418.20
2022-12-31T21:39:37.673Z,99423.00
2022-12-31T21:42:35.447Z,99423.80
2022-12-31T21:45:32.936Z,99414.60
2022-12-31T21:48:30.653Z,99417.60
2022-12-31T21:51:28.068Z,99429.80
2022-12-31T21:54:43.504Z,99430.40
2022-12-31T21:58:07.315Z,99428.40
2022-12-31T22:01:16.422Z,99425.20
2022-12-31T22:04:43.121Z,99419.80
2022-12-31T22:07:31.676Z,99414.00
2022-12-31T22:10:29.266Z,99410.40
2022-12-31T22:13:26.738Z,99405.00
2022-12-31T22:16:24.535Z,99406.40
2022-12-31T22:19:22.268Z,99399.80
2022-12-31T22:22:19.694Z,99392.60
2022-12-31T22:25:17.396Z,99399.40
2022-12-31T22:31:32.553Z,99406.60
2022-12-31T22:34:30.357Z,99406.80
2022-12-31T22:37:55.749Z,99409.80
2022-12-31T22:40:45.541Z,99400.80
2022-12-31T22:43:42.974Z,99393.40
2022-12-31T22:46:40.704Z,99396.20
2022-12-31T22:49:38.171Z,99403.40
2022-12-31T22:52:35.894Z,99403.80
2022-12-31T22:55:33.311Z,99403.80
2022-12-31T22:58:31.023Z,99404.00
2022-12-31T23:01:28.845Z,99404.60
2022-12-31T23:04:26.332Z,99398.80
2022-12-31T23:07:24.054Z,99390.40
2022-12-31T23:10:39.080Z,99397.60
2022-12-31T23:13:54.667Z,99402.20
2022-12-31T23:17:30.818Z,99402.80
2022-12-31T23:20:45.085Z,99405.60
2022-12-31T23:23:42.546Z,99415.00
2022-12-31T23:26:40.207Z,99422.40
2022-12-31T23:29:43.712Z,99421.80
2022-12-31T23:32:43.934Z,99420.00
2022-12-31T23:35:41.713Z,99424.80
2022-12-31T23:38:39.125Z,99423.20
2022-12-31T23:41:36.940Z,99419.60
2022-12-31T23:44:34.370Z,99429.40
2022-12-31T23:47:31.969Z,99426.60
2022-12-31T23:50:29.393Z,99427.80
2022-12-31T23:53:27.157Z,99425.20
2022-12-31T23:56:24.894Z,99410.80
2022-12-31T23:59:22.317Z,99413.60
